Time,TemperatureF,DewpointF,PressureIn,WindDirection,WindDirectionDegrees,WindSpeedMPH,WindSpeedGustMPH,Humidity,HourlyPrecipIn,Conditions,Clouds,dailyrainin,SoftwareType,DateUTC
2013-04-07 00:00:00,52.9,36.9,29.88,North,359,0.0,0.0,55,0.00,,,0.00,Weather View 32 v70,2013-04-07 06:00:00,
2013-04-07 00:05:00,53.0,36.8,29.88,North,359,0.0,0.0,54,0.00,,,0.00,Weather View 32 v70,2013-04-07 06:05:00,
2013-04-07 00:15:00,52.9,36.7,29.88,North,359,0.0,0.0,54,0.00,,,0.00,Weather View 32 v70,2013-04-07 06:15:00,
2013-04-07 00:20:00,52.8,36.8,29.88,North,359,0.0,0.0,54,0.00,,,0.00,Weather View 32 v70,2013-04-07 06:20:00,
2013-04-07 00:25:00,52.8,36.8,29.88,North,359,0.0,0.0,55,0.00,,,0.00,Weather View 32 v70,2013-04-07 06:25:00,
2013-04-07 00:35:00,52.4,36.6,29.88,North,359,0.0,0.0,55,0.00,,,0.00,Weather View 32 v70,2013-04-07 06:35:00,
2013-04-07 00:40:00,52.3,36.9,29.88,North,359,0.0,0.0,56,0.00,,,0.00,Weather View 32 v70,2013-04-07 06:40:00,
2013-04-07 00:45:00,52.1,36.8,29.88,North,359,0.0,0.0,56,0.00,,,0.00,Weather View 32 v70,2013-04-07 06:45:00,
2013-04-07 00:50:00,51.9,36.8,29.88,North,359,0.0,0.0,56,0.00,,,0.00,Weather View 32 v70,2013-04-07 06:50:00,
2013-04-07 00:55:00,51.8,36.8,29.87,North,359,0.0,0.0,57,0.00,,,0.00,Weather View 32 v70,2013-04-07 06:55:00,
2013-04-07 01:05:00,51.5,37.1,29.87,North,359,0.0,0.0,58,0.00,,,0.00,Weather View 32 v70,2013-04-07 07:05:00,
2013-04-07 01:10:00,51.3,37.2,29.87,North,359,0.0,0.0,58,0.00,,,0.00,Weather View 32 v70,2013-04-07 07:10:00,
2013-04-07 01:15:00,51.1,37.2,29.87,North,359,0.0,0.0,59,0.00,,,0.00,Weather View 32 v70,2013-04-07 07:15:00,
2013-04-07 01:22:00,50.9,36.9,29.87,North,359,0.0,0.0,59,0.00,,,0.00,Weather View 32 v70,2013-04-07 07:22:00,
2013-04-07 01:30:00,50.7,36.8,29.87,North,359,0.0,0.0,59,0.00,,,0.00,Weather View 32 v70,2013-04-07 07:30:00,
2013-04-07 01:35:00,50.6,36.6,29.87,North,359,0.0,0.0,59,0.00,,,0.00,Weather View 32 v70,2013-04-07 07:35:00,
2013-04-07 01:40:00,50.5,36.5,29.86,North,359,0.0,0.0,59,0.00,,,0.00,Weather View 32 v70,2013-04-07 07:40:00,
2013-04-07 01:45:00,50.4,36.7,29.86,North,359,0.0,0.0,59,0.00,,,0.00,Weather View 32 v70,2013-04-07 07:45:00,
2013-04-07 01:50:00,50.1,36.4,29.85,North,359,0.0,0.0,59,0.00,,,0.00,Weather View 32 v70,2013-04-07 07:50:00,
2013-04-07 02:00:00,49.8,36.4,29.85,North,359,0.0,0.0,60,0.00,,,0.00,Weather View 32 v70,2013-04-07 08:00:00,
2013-04-07 02:10:00,49.6,36.6,29.85,North,359,0.0,0.0,61,0.00,,,0.00,Weather View 32 v70,2013-04-07 08:10:00,
2013-04-07 02:20:00,49.3,36.3,29.85,North,359,0.0,0.0,61,0.00,,,0.00,Weather View 32 v70,2013-04-07 08:20:00,
2013-04-07 02:25:00,49.1,36.3,29.85,North,359,0.0,0.0,61,0.00,,,0.00,Weather View 32 v70,2013-04-07 08:25:00,
2013-04-07 02:30:00,49.0,36.4,29.85,North,359,0.0,0.0,62,0.00,,,0.00,Weather View 32 v70,2013-04-07 08:30:00,
2013-04-07 02:35:00,49.0,36.2,29.85,North,359,0.0,0.0,61,0.00,,,0.00,Weather View 32 v70,2013-04-07 08:35:00,
2013-04-07 02:45:00,48.8,36.2,29.84,North,359,0.0,0.0,62,0.00,,,0.00,Weather View 32 v70,2013-04-07 08:45:00,
2013-04-07 02:55:00,48.4,35.2,29.84,North,359,0.0,0.0,60,0.00,,,0.00,Weather View 32 v70,2013-04-07 08:55:00,
2013-04-07 03:00:00,48.6,35.0,29.84,North,359,0.0,0.0,59,0.00,,,0.00,Weather View 32 v70,2013-04-07 09:00:00,
2013-04-07 03:10:00,49.6,33.4,29.83,North,359,0.0,0.0,54,0.00,,,0.00,Weather View 32 v70,2013-04-07 09:10:00,
2013-04-07 03:15:00,50.2,32.5,29.83,North,359,0.0,0.0,51,0.00,,,0.00,Weather View 32 v70,2013-04-07 09:15:00,
2013-04-07 03:20:00,50.7,31.9,29.83,North,359,0.0,0.0,49,0.00,,,0.00,Weather View 32 v70,2013-04-07 09:20:00,
2013-04-07 03:30:00,50.9,32.8,29.83,North,359,0.0,0.0,50,0.00,,,0.00,Weather View 32 v70,2013-04-07 09:30:00,
2013-04-07 03:35:00,50.7,33.0,29.83,North,359,0.0,0.0,51,0.00,,,0.00,Weather View 32 v70,2013-04-07 09:35:00,
2013-04-07 03:40:00,50.8,32.2,29.83,North,359,0.0,0.0,49,0.00,,,0.00,Weather View 32 v70,2013-04-07 09:40:00,
2013-04-07 03:45:00,51.1,32.5,29.84,North,359,0.0,0.0,49,0.00,,,0.00,Weather View 32 v70,2013-04-07 09:45:00,
2013-04-07 03:55:00,50.8,32.8,29.83,North,359,0.0,0.0,50,0.00,,,0.00,Weather View 32 v70,2013-04-07 09:55:00,
2013-04-07 04:05:00,49.8,33.0,29.84,North,359,0.0,0.0,52,0.00,,,0.00,Weather View 32 v70,2013-04-07 10:05:00,
2013-04-07 04:15:00,48.9,32.9,29.84,North,359,0.0,0.0,54,0.00,,,0.00,Weather View 32 v70,2013-04-07 10:15:00,
2013-04-07 04:20:00,48.8,32.7,29.84,North,359,0.0,0.0,54,0.00,,,0.00,Weather View 32 v70,2013-04-07 10:20:00,
2013-04-07 04:30:00,48.9,33.0,29.84,North,359,0.0,0.0,54,0.00,,,0.00,Weather View 32 v70,2013-04-07 10:30:00,
2013-04-07 04:40:00,48.7,32.9,29.84,North,359,0.0,0.0,54,0.00,,,0.00,Weather View 32 v70,2013-04-07 10:40:00,
2013-04-07 04:45:00,48.4,32.9,29.84,North,359,0.0,0.0,55,0.00,,,0.00,Weather View 32 v70,2013-04-07 10:45:00,
2013-04-07 04:50:00,48.3,33.0,29.84,North,359,0.0,0.0,55,0.00,,,0.00,Weather View 32 v70,2013-04-07 10:50:00,
2013-04-07 05:00:00,48.0,32.8,29.84,North,359,0.0,0.0,56,0.00,,,0.00,Weather View 32 v70,2013-04-07 11:00:00,
2013-04-07 05:05:00,47.9,32.7,29.84,North,359,0.0,0.0,56,0.00,,,0.00,Weather View 32 v70,2013-04-07 11:05:00,
2013-04-07 05:10:00,47.8,32.6,29.84,North,359,0.0,0.0,56,0.00,,,0.00,Weather View 32 v70,2013-04-07 11:10:00,
2013-04-07 05:15:00,47.8,32.5,29.84,North,359,0.0,0.0,55,0.00,,,0.00,Weather View 32 v70,2013-04-07 11:15:00,
2013-04-07 05:24:00,47.8,32.4,29.84,North,359,0.0,0.0,55,0.00,,,0.00,Weather View 32 v70,2013-04-07 11:24:00,
2013-04-07 05:30:00,47.4,33.2,29.85,North,359,0.0,0.0,58,0.00,,,0.00,Weather View 32 v70,2013-04-07 11:30:00,
2013-04-07 05:40:00,46.6,35.6,29.85,North,359,0.0,0.0,65,0.00,,,0.00,Weather View 32 v70,2013-04-07 11:40:00,
2013-04-07 05:50:00,45.7,36.4,29.84,North,359,0.0,0.0,70,0.00,,,0.00,Weather View 32 v70,2013-04-07 11:50:00,
2013-04-07 05:55:00,45.0,36.3,29.85,North,359,0.0,0.0,71,0.00,,,0.00,Weather View 32 v70,2013-04-07 11:55:00,
2013-04-07 06:00:00,44.6,36.4,29.84,North,359,0.0,0.0,73,0.00,,,0.00,Weather View 32 v70,2013-04-07 12:00:00,
2013-04-07 06:10:00,43.9,36.5,29.85,North,359,0.0,0.0,75,0.00,,,0.00,Weather View 32 v70,2013-04-07 12:10:00,
2013-04-07 06:20:00,43.4,36.5,29.85,North,359,0.0,0.0,77,0.00,,,0.00,Weather View 32 v70,2013-04-07 12:20:00,
2013-04-07 06:25:00,43.3,36.6,29.85,North,359,0.0,0.0,77,0.00,,,0.00,Weather View 32 v70,2013-04-07 12:25:00,
2013-04-07 06:35:00,42.9,36.5,29.85,North,359,0.0,0.0,78,0.00,,,0.00,Weather View 32 v70,2013-04-07 12:35:00,
2013-04-07 06:40:00,42.8,36.6,29.85,North,359,0.0,0.0,79,0.00,,,0.00,Weather View 32 v70,2013-04-07 12:40:00,
2013-04-07 06:50:00,42.8,36.5,29.85,North,359,0.0,0.0,78,0.00,,,0.00,Weather View 32 v70,2013-04-07 12:50:00,
2013-04-07 06:55:00,42.5,36.3,29.86,North,359,0.0,0.0,79,0.00,,,0.00,Weather View 32 v70,2013-04-07 12:55:00,
2013-04-07 07:00:00,41.9,36.0,29.86,North,359,0.0,0.0,80,0.00,,,0.00,Weather View 32 v70,2013-04-07 13:00:00,
2013-04-07 07:05:00,41.9,36.1,29.87,North,359,0.0,0.0,80,0.00,,,0.00,Weather View 32 v70,2013-04-07 13:05:00,
2013-04-07 07:10:00,42.0,36.0,29.87,North,359,0.0,0.0,79,0.00,,,0.00,Weather View 32 v70,2013-04-07 13:10:00,
2013-04-07 07:20:00,42.4,36.4,29.87,North,359,0.0,0.0,79,0.00,,,0.00,Weather View 32 v70,2013-04-07 13:20:00,
2013-04-07 07:25:00,42.4,36.4,29.87,North,359,0.0,0.0,79,0.00,,,0.00,Weather View 32 v70,2013-04-07 13:25:00,
2013-04-07 07:35:00,42.6,36.0,29.87,North,359,0.0,0.0,77,0.00,,,0.00,Weather View 32 v70,2013-04-07 13:35:00,
2013-04-07 07:45:00,42.9,36.1,29.87,North,359,0.0,0.0,77,0.00,,,0.00,Weather View 32 v70,2013-04-07 13:45:00,
2013-04-07 07:50:00,43.3,35.6,29.86,North,359,0.0,0.0,74,0.00,,,0.00,Weather View 32 v70,2013-04-07 13:50:00,
2013-04-07 08:00:00,44.1,34.9,29.86,North,359,0.0,0.0,70,0.00,,,0.00,Weather View 32 v70,2013-04-07 14:00:00,
2013-04-07 08:15:00,44.9,34.0,29.85,North,359,0.0,0.0,66,0.00,,,0.00,Weather View 32 v70,2013-04-07 14:15:00,
2013-04-07 08:25:00,45.6,34.3,29.85,North,359,0.0,0.0,65,0.00,,,0.00,Weather View 32 v70,2013-04-07 14:25:00,
2013-04-07 08:30:00,46.0,34.5,29.85,North,359,0.0,0.0,64,0.00,,,0.00,Weather View 32 v70,2013-04-07 14:30:00,
2013-04-07 08:35:00,46.2,34.6,29.85,North,359,0.0,0.0,64,0.00,,,0.00,Weather View 32 v70,2013-04-07 14:35:00,
2013-04-07 08:45:00,46.4,34.5,29.85,North,359,0.0,0.0,63,0.00,,,0.00,Weather View 32 v70,2013-04-07 14:45:00,
2013-04-07 08:50:00,46.6,34.5,29.85,North,359,0.0,0.0,63,0.00,,,0.00,Weather View 32 v70,2013-04-07 14:50:00,
2013-04-07 08:55:00,46.8,34.6,29.85,North,359,0.0,0.0,62,0.00,,,0.00,Weather View 32 v70,2013-04-07 14:55:00,
2013-04-07 09:05:00,48.0,35.1,29.83,North,359,0.0,0.0,61,0.00,,,0.00,Weather View 32 v70,2013-04-07 15:05:00,
2013-04-07 09:15:00,49.3,36.0,29.83,North,359,0.0,0.0,60,0.00,,,0.00,Weather View 32 v70,2013-04-07 15:15:00,
2013-04-07 09:20:00,49.9,36.4,29.83,North,359,0.0,0.0,60,0.00,,,0.00,Weather View 32 v70,2013-04-07 15:20:00,
2013-04-07 09:27:00,50.6,36.9,29.82,North,359,0.0,0.0,59,0.00,,,0.00,Weather View 32 v70,2013-04-07 15:27:00,
2013-04-07 09:35:00,51.4,36.6,29.82,North,359,0.0,0.0,57,0.00,,,0.00,Weather View 32 v70,2013-04-07 15:35:00,
2013-04-07 09:50:00,52.4,36.9,29.82,North,359,0.0,0.0,55,0.00,,,0.00,Weather View 32 v70,2013-04-07 15:50:00,
2013-04-07 10:00:00,52.2,36.6,29.81,North,359,0.0,0.0,55,0.00,,,0.00,Weather View 32 v70,2013-04-07 16:00:00,
2013-04-07 10:05:00,52.1,36.0,29.82,North,359,0.0,0.0,54,0.00,,,0.00,Weather View 32 v70,2013-04-07 16:05:00,
2013-04-07 10:15:00,53.0,34.6,29.82,North,359,0.0,0.0,50,0.00,,,0.00,Weather View 32 v70,2013-04-07 16:15:00,
2013-04-07 10:25:00,53.8,34.7,29.81,North,359,0.0,0.0,48,0.00,,,0.00,Weather View 32 v70,2013-04-07 16:25:00,
2013-04-07 10:30:00,53.9,33.7,29.81,North,359,0.0,0.0,46,0.00,,,0.00,Weather View 32 v70,2013-04-07 16:30:00,
2013-04-07 10:40:00,55.0,32.9,29.80,North,359,0.0,0.0,43,0.00,,,0.00,Weather View 32 v70,2013-04-07 16:40:00,
2013-04-07 10:45:00,55.4,32.2,29.80,North,359,0.0,0.0,41,0.00,,,0.00,Weather View 32 v70,2013-04-07 16:45:00,
2013-04-07 10:50:00,55.6,33.1,29.80,North,359,0.0,0.0,43,0.00,,,0.00,Weather View 32 v70,2013-04-07 16:50:00,
2013-04-07 11:00:00,56.1,31.9,29.80,North,359,0.0,0.0,40,0.00,,,0.00,Weather View 32 v70,2013-04-07 17:00:00,
2013-04-07 11:05:00,56.6,32.3,29.80,North,359,0.0,0.0,40,0.00,,,0.00,Weather View 32 v70,2013-04-07 17:05:00,
2013-04-07 11:10:00,56.8,31.8,29.80,North,359,0.0,0.0,39,0.00,,,0.00,Weather View 32 v70,2013-04-07 17:10:00,
2013-04-07 11:15:00,57.7,30.0,29.80,North,359,0.0,0.0,35,0.00,,,0.00,Weather View 32 v70,2013-04-07 17:15:00,
2013-04-07 11:25:00,58.1,32.3,29.79,North,359,0.0,0.0,38,0.00,,,0.00,Weather View 32 v70,2013-04-07 17:25:00,
2013-04-07 11:30:00,58.0,32.1,29.79,North,359,0.0,0.0,37,0.00,,,0.00,Weather View 32 v70,2013-04-07 17:30:00,
2013-04-07 11:40:00,58.0,31.8,29.79,North,359,0.0,0.0,37,0.00,,,0.00,Weather View 32 v70,2013-04-07 17:40:00,
2013-04-07 11:45:00,58.3,31.7,29.78,North,359,0.0,0.0,36,0.00,,,0.00,Weather View 32 v70,2013-04-07 17:45:00,
2013-04-07 11:55:00,59.7,31.4,29.77,North,359,0.0,0.0,34,0.00,,,0.00,Weather View 32 v70,2013-04-07 17:55:00,
2013-04-07 12:05:00,59.7,31.2,29.77,North,359,0.0,0.0,34,0.00,,,0.00,Weather View 32 v70,2013-04-07 18:05:00,
2013-04-07 12:10:00,59.5,30.8,29.77,North,359,0.0,0.0,34,0.00,,,0.00,Weather View 32 v70,2013-04-07 18:10:00,
2013-04-07 12:20:00,60.4,27.9,29.77,North,359,0.0,0.0,29,0.00,,,0.00,Weather View 32 v70,2013-04-07 18:20:00,
2013-04-07 12:29:00,60.2,28.7,29.77,North,359,0.0,0.0,30,0.00,,,0.00,Weather View 32 v70,2013-04-07 18:29:00,
2013-04-07 12:35:00,60.8,28.4,29.75,North,359,0.0,0.0,29,0.00,,,0.00,Weather View 32 v70,2013-04-07 18:35:00,
2013-04-07 12:40:00,61.0,28.5,29.75,North,359,0.0,0.0,29,0.00,,,0.00,Weather View 32 v70,2013-04-07 18:40:00,
2013-04-07 12:50:00,60.6,30.0,29.75,North,359,0.0,0.0,31,0.00,,,0.00,Weather View 32 v70,2013-04-07 18:50:00,
2013-04-07 13:00:00,60.8,29.7,29.74,North,359,0.0,0.0,31,0.00,,,0.00,Weather View 32 v70,2013-04-07 19:00:00,
2013-04-07 13:05:00,61.0,30.2,29.74,North,359,0.0,0.0,31,0.00,,,0.00,Weather View 32 v70,2013-04-07 19:05:00,
2013-04-07 13:10:00,61.1,30.5,29.74,North,359,0.0,0.0,31,0.00,,,0.00,Weather View 32 v70,2013-04-07 19:10:00,
2013-04-07 13:15:00,61.1,30.2,29.74,North,359,0.0,0.0,31,0.00,,,0.00,Weather View 32 v70,2013-04-07 19:15:00,
2013-04-07 13:25:00,60.5,29.2,29.73,North,359,0.0,0.0,31,0.00,,,0.00,Weather View 32 v70,2013-04-07 19:25:00,
2013-04-07 13:35:00,60.5,28.9,29.73,North,359,0.0,0.0,30,0.00,,,0.00,Weather View 32 v70,2013-04-07 19:35:00,
2013-04-07 13:45:00,60.5,30.3,29.73,North,359,0.0,0.0,32,0.00,,,0.00,Weather View 32 v70,2013-04-07 19:45:00,
2013-04-07 13:50:00,60.4,30.5,29.73,North,359,0.0,0.0,32,0.00,,,0.00,Weather View 32 v70,2013-04-07 19:50:00,
2013-04-07 13:55:00,60.7,30.9,29.73,North,359,0.0,0.0,32,0.00,,,0.00,Weather View 32 v70,2013-04-07 19:55:00,
2013-04-07 14:05:00,60.9,31.0,29.72,North,359,0.0,0.0,32,0.00,,,0.00,Weather View 32 v70,2013-04-07 20:05:00,
2013-04-07 14:10:00,60.6,30.2,29.73,North,359,0.0,0.0,32,0.00,,,0.00,Weather View 32 v70,2013-04-07 20:10:00,
2013-04-07 14:15:00,60.5,30.0,29.73,North,359,0.0,0.0,31,0.00,,,0.00,Weather View 32 v70,2013-04-07 20:15:00,
2013-04-07 14:20:00,60.6,31.0,29.73,North,359,0.0,0.0,33,0.00,,,0.00,Weather View 32 v70,2013-04-07 20:20:00,
2013-04-07 14:30:00,60.6,32.0,29.73,North,359,0.0,0.0,34,0.00,,,0.00,Weather View 32 v70,2013-04-07 20:30:00,
2013-04-07 14:40:00,59.9,32.2,29.75,North,359,0.0,0.0,35,0.00,,,0.00,Weather View 32 v70,2013-04-07 20:40:00,
2013-04-07 14:45:00,59.6,31.1,29.74,North,359,0.0,0.0,34,0.00,,,0.00,Weather View 32 v70,2013-04-07 20:45:00,
2013-04-07 14:50:00,59.5,30.9,29.74,North,359,0.0,0.0,34,0.03,,,0.03,Weather View 32 v70,2013-04-07 20:50:00,
2013-04-07 15:00:00,59.1,32.2,29.74,North,359,0.0,0.0,36,0.03,,,0.03,Weather View 32 v70,2013-04-07 21:00:00,
2013-04-07 15:05:00,59.6,32.1,29.74,North,359,0.0,0.0,35,0.03,,,0.03,Weather View 32 v70,2013-04-07 21:05:00,
2013-04-07 15:15:00,60.4,31.5,29.74,North,359,0.0,0.0,34,0.03,,,0.03,Weather View 32 v70,2013-04-07 21:15:00,
2013-04-07 15:20:00,60.3,31.5,29.73,North,359,0.0,0.0,34,0.03,,,0.03,Weather View 32 v70,2013-04-07 21:20:00,
2013-04-07 15:30:00,59.8,32.2,29.73,North,359,0.0,0.0,35,0.03,,,0.03,Weather View 32 v70,2013-04-07 21:30:00,
2013-04-07 15:35:00,60.1,30.8,29.72,North,359,0.0,0.0,33,0.03,,,0.03,Weather View 32 v70,2013-04-07 21:35:00,
2013-04-07 15:40:00,60.3,31.2,29.72,North,359,0.0,0.0,33,0.03,,,0.03,Weather View 32 v70,2013-04-07 21:40:00,
2013-04-07 15:50:00,60.5,30.8,29.72,North,359,0.0,0.0,33,0.00,,,0.03,Weather View 32 v70,2013-04-07 21:50:00,
2013-04-07 15:55:00,60.6,31.3,29.73,North,359,0.0,0.0,33,0.00,,,0.03,Weather View 32 v70,2013-04-07 21:55:00,
2013-04-07 16:05:00,60.3,31.5,29.74,North,359,0.0,0.0,34,0.00,,,0.03,Weather View 32 v70,2013-04-07 22:05:00,
2013-04-07 16:15:00,60.5,30.3,29.73,North,359,0.0,0.0,32,0.00,,,0.03,Weather View 32 v70,2013-04-07 22:15:00,
2013-04-07 16:20:00,60.6,30.7,29.72,North,359,0.0,0.0,32,0.00,,,0.03,Weather View 32 v70,2013-04-07 22:20:00,
2013-04-07 16:25:00,60.4,31.0,29.72,North,359,0.0,0.0,33,0.00,,,0.03,Weather View 32 v70,2013-04-07 22:25:00,
2013-04-07 16:31:00,60.4,30.5,29.72,North,359,0.0,0.0,32,0.00,,,0.03,Weather View 32 v70,2013-04-07 22:31:00,
2013-04-07 16:40:00,61.2,31.3,29.71,North,359,0.0,0.0,32,0.00,,,0.03,Weather View 32 v70,2013-04-07 22:40:00,
2013-04-07 16:45:00,61.5,31.8,29.71,North,359,0.0,0.0,33,0.00,,,0.03,Weather View 32 v70,2013-04-07 22:45:00,
2013-04-07 16:55:00,62.0,31.8,29.72,North,359,0.0,0.0,32,0.00,,,0.03,Weather View 32 v70,2013-04-07 22:55:00,
2013-04-07 17:05:00,61.6,31.6,29.72,North,359,0.0,0.0,32,0.00,,,0.03,Weather View 32 v70,2013-04-07 23:05:00,
2013-04-07 17:15:00,61.3,32.3,29.71,North,359,0.0,0.0,34,0.00,,,0.03,Weather View 32 v70,2013-04-07 23:15:00,
2013-04-07 17:20:00,61.4,31.9,29.71,North,359,0.0,0.0,33,0.00,,,0.03,Weather View 32 v70,2013-04-07 23:20:00,
2013-04-07 17:30:00,61.1,31.6,29.70,North,359,0.0,0.0,33,0.00,,,0.03,Weather View 32 v70,2013-04-07 23:30:00,
2013-04-07 17:35:00,61.1,30.5,29.70,North,359,0.0,0.0,31,0.00,,,0.03,Weather View 32 v70,2013-04-07 23:35:00,
2013-04-07 17:40:00,61.1,30.8,29.70,North,359,0.0,0.0,32,0.00,,,0.03,Weather View 32 v70,2013-04-07 23:40:00,
2013-04-07 17:45:00,61.2,30.7,29.70,North,359,0.0,0.0,32,0.00,,,0.03,Weather View 32 v70,2013-04-07 23:45:00,
2013-04-07 17:50:00,61.3,30.6,29.70,North,359,0.0,0.0,31,0.00,,,0.03,Weather View 32 v70,2013-04-07 23:50:00,
2013-04-07 18:00:00,61.3,30.4,29.70,North,359,0.0,0.0,31,0.00,,,0.03,Weather View 32 v70,2013-04-08 00:00:00,
2013-04-07 18:10:00,61.4,31.8,29.70,North,359,0.0,0.0,33,0.00,,,0.03,Weather View 32 v70,2013-04-08 00:10:00,
2013-04-07 18:20:00,60.8,29.4,29.70,North,359,0.0,0.0,30,0.00,,,0.03,Weather View 32 v70,2013-04-08 00:20:00,
2013-04-07 18:25:00,60.7,29.7,29.71,North,359,0.0,0.0,31,0.00,,,0.03,Weather View 32 v70,2013-04-08 00:25:00,
2013-04-07 18:32:00,60.5,29.6,29.70,North,359,0.0,0.0,31,0.00,,,0.03,Weather View 32 v70,2013-04-08 00:32:00,
2013-04-07 18:40:00,60.1,29.9,29.71,North,359,0.0,0.0,32,0.00,,,0.03,Weather View 32 v70,2013-04-08 00:40:00,
2013-04-07 18:45:00,59.7,29.6,29.72,North,359,0.0,0.0,32,0.00,,,0.03,Weather View 32 v70,2013-04-08 00:45:00,
2013-04-07 18:50:00,59.6,30.2,29.72,North,359,0.0,0.0,33,0.00,,,0.03,Weather View 32 v70,2013-04-08 00:50:00,
2013-04-07 19:00:00,59.0,30.6,29.72,North,359,0.0,0.0,34,0.00,,,0.03,Weather View 32 v70,2013-04-08 01:00:00,
2013-04-07 19:05:00,58.7,31.6,29.72,North,359,0.0,0.0,36,0.00,,,0.03,Weather View 32 v70,2013-04-08 01:05:00,
2013-04-07 19:15:00,57.8,31.1,29.72,North,359,0.0,0.0,36,0.00,,,0.03,Weather View 32 v70,2013-04-08 01:15:00,
2013-04-07 19:20:00,57.4,32.0,29.72,North,359,0.0,0.0,38,0.00,,,0.03,Weather View 32 v70,2013-04-08 01:20:00,
2013-04-07 19:25:00,57.0,32.0,29.72,North,359,0.0,0.0,39,0.00,,,0.03,Weather View 32 v70,2013-04-08 01:25:00,
2013-04-07 19:30:00,56.8,32.2,29.72,North,359,0.0,0.0,39,0.00,,,0.03,Weather View 32 v70,2013-04-08 01:30:00,
2013-04-07 19:40:00,55.7,34.0,29.73,North,359,0.0,0.0,44,0.00,,,0.03,Weather View 32 v70,2013-04-08 01:40:00,
2013-04-07 19:45:00,55.3,34.1,29.74,North,359,0.0,0.0,45,0.00,,,0.03,Weather View 32 v70,2013-04-08 01:45:00,
2013-04-07 19:50:00,54.9,34.1,29.74,North,359,0.0,0.0,45,0.00,,,0.03,Weather View 32 v70,2013-04-08 01:50:00,
2013-04-07 20:05:00,54.6,34.5,29.75,North,359,0.0,0.0,47,0.00,,,0.03,Weather View 32 v70,2013-04-08 02:05:00,
2013-04-07 20:10:00,54.3,34.5,29.74,North,359,0.0,0.0,47,0.00,,,0.03,Weather View 32 v70,2013-04-08 02:10:00,
2013-04-07 20:20:00,52.7,36.0,29.75,North,359,0.0,0.0,53,0.00,,,0.03,Weather View 32 v70,2013-04-08 02:20:00,
2013-04-07 20:25:00,51.9,36.8,29.74,North,359,0.0,0.0,56,0.00,,,0.03,Weather View 32 v70,2013-04-08 02:25:00,
2013-04-07 20:30:00,51.1,36.8,29.73,North,359,0.0,0.0,58,0.00,,,0.03,Weather View 32 v70,2013-04-08 02:30:00,
2013-04-07 20:35:00,50.7,36.6,29.73,North,359,0.0,0.0,58,0.00,,,0.03,Weather View 32 v70,2013-04-08 02:35:00,
2013-04-07 20:50:00,50.2,36.8,29.73,North,359,0.0,0.0,60,0.00,,,0.03,Weather View 32 v70,2013-04-08 02:50:00,
2013-04-07 21:00:00,49.9,36.9,29.72,North,359,0.0,0.0,61,0.00,,,0.03,Weather View 32 v70,2013-04-08 03:00:00,
2013-04-07 21:20:00,49.6,36.4,29.73,North,359,0.0,0.0,60,0.00,,,0.03,Weather View 32 v70,2013-04-08 03:20:00,
2013-04-07 21:30:00,50.4,35.7,29.74,North,359,0.0,0.0,57,0.00,,,0.03,Weather View 32 v70,2013-04-08 03:30:00,
2013-04-07 21:40:00,51.3,35.5,29.73,North,359,0.0,0.0,55,0.00,,,0.03,Weather View 32 v70,2013-04-08 03:40:00,
2013-04-07 21:50:00,50.6,36.4,29.73,North,359,0.0,0.0,58,0.00,,,0.03,Weather View 32 v70,2013-04-08 03:50:00,
2013-04-07 22:00:00,50.4,36.4,29.73,North,359,0.0,0.0,59,0.00,,,0.03,Weather View 32 v70,2013-04-08 04:00:00,
2013-04-07 22:05:00,50.0,37.2,29.74,North,359,0.0,0.0,61,0.00,,,0.03,Weather View 32 v70,2013-04-08 04:05:00,
2013-04-07 22:10:00,49.3,36.5,29.74,North,359,0.0,0.0,61,0.00,,,0.03,Weather View 32 v70,2013-04-08 04:10:00,
2013-04-07 22:20:00,48.3,36.1,29.74,North,359,0.0,0.0,63,0.00,,,0.03,Weather View 32 v70,2013-04-08 04:20:00,
2013-04-07 22:30:00,47.6,36.3,29.73,North,359,0.0,0.0,65,0.00,,,0.03,Weather View 32 v70,2013-04-08 04:30:00,
2013-04-07 22:35:00,47.6,36.3,29.73,North,359,0.0,0.0,65,0.00,,,0.03,Weather View 32 v70,2013-04-08 04:35:00,
2013-04-07 22:45:00,46.5,36.1,29.72,North,359,0.0,0.0,67,0.00,,,0.03,Weather View 32 v70,2013-04-08 04:45:00,
2013-04-07 22:50:00,46.5,36.0,29.72,North,359,0.0,0.0,67,0.00,,,0.03,Weather View 32 v70,2013-04-08 04:50:00,
2013-04-07 22:55:00,46.4,36.0,29.72,North,359,0.0,0.0,67,0.00,,,0.03,Weather View 32 v70,2013-04-08 04:55:00,
2013-04-07 23:00:00,46.4,36.3,29.72,North,359,0.0,0.0,68,0.00,,,0.03,Weather View 32 v70,2013-04-08 05:00:00,
2013-04-07 23:05:00,46.4,36.2,29.72,North,359,0.0,0.0,68,0.00,,,0.03,Weather View 32 v70,2013-04-08 05:05:00,
2013-04-07 23:15:00,46.8,35.9,29.71,North,359,0.0,0.0,66,0.00,,,0.03,Weather View 32 v70,2013-04-08 05:15:00,
2013-04-07 23:20:00,47.2,35.9,29.71,North,359,0.0,0.0,65,0.00,,,0.03,Weather View 32 v70,2013-04-08 05:20:00,
2013-04-07 23:25:00,47.3,35.9,29.71,North,359,0.0,0.0,64,0.00,,,0.03,Weather View 32 v70,2013-04-08 05:25:00,
2013-04-07 23:35:00,47.3,36.0,29.71,North,359,0.0,0.0,65,0.00,,,0.03,Weather View 32 v70,2013-04-08 05:35:00,
2013-04-07 23:45:00,47.1,35.8,29.72,North,359,0.0,0.0,65,0.00,,,0.03,Weather View 32 v70,2013-04-08 05:45:00,
2013-04-07 23:50:00,46.8,35.6,29.73,North,359,0.0,0.0,65,0.00,,,0.03,Weather View 32 v70,2013-04-08 05:50:00,
2013-04-07 23:55:00,46.7,35.5,29.73,North,359,0.0,0.0,65,0.00,,,0.03,Weather View 32 v70,2013-04-08 05:55:00,